Portada
METAR-TAF:

METAR-TAF

Aeroports :

Kano, Nigèria

latitud: 12-03N, longitud: 008-32E, altitud: 476 m

Observació

L'informe es va fer fa 1 hora i 19 minuts, a les 19:00 UTC
Vent 5 kt del Oest/Sud-Oest
Temperatura 29°C
Humitat 66%
Pressió 1015 hPa
Visibilitat 10 km o més
Escasses núvols a una alçada de 1100 ft
Escasses núvols a una alçada de 2100 ft, Cumulonimbus.
tempesta

METAR: DNKN 181900Z 25005KT 9999 TS FEW011 FEW021CB 29/22 Q1015 TEMPO TS

Hora: 21:19 (20:19 UTC)


TAF: manca

Observacions i pronòstics meteorològics de més de 4000 aeroports (METAR i TAF).

Les estacions disponibles són els punts grocs i vermells al mapa.

Posi el ratolí al punt desitjat per veure el nom de l'estació.

Feu clic per veure les observacions i els pronòstics meteorològics.

Per canviar el mapa: feu clic els botons verds amb una creu de color negre per apropar; al botó verd amb un guió per allunyar la imatge; o en les fletxes verdes per a mapes adjacents.


METAR-TAF: